sensor_id;sensor_type;location;lat;lon;timestamp;P1;durP1;ratioP1;P2;durP2;ratioP2
45408;SDS011;31162;51.076;3.784;2023-04-06T00:01:39;17.48;;;14.15;;
45408;SDS011;31162;51.076;3.784;2023-04-06T00:04:05;16.92;;;14.35;;
45408;SDS011;31162;51.076;3.784;2023-04-06T00:06:31;17.63;;;13.10;;
45408;SDS011;31162;51.076;3.784;2023-04-06T00:08:57;17.73;;;13.48;;
45408;SDS011;31162;51.076;3.784;2023-04-06T00:11:23;18.38;;;14.30;;
45408;SDS011;31162;51.076;3.784;2023-04-06T00:13:49;18.40;;;13.82;;
45408;SDS011;31162;51.076;3.784;2023-04-06T00:16:15;23.52;;;15.00;;
45408;SDS011;31162;51.076;3.784;2023-04-06T00:18:41;16.98;;;14.15;;
45408;SDS011;31162;51.076;3.784;2023-04-06T00:21:07;17.40;;;13.55;;
45408;SDS011;31162;51.076;3.784;2023-04-06T00:23:33;19.15;;;14.40;;
45408;SDS011;31162;51.076;3.784;2023-04-06T00:26:00;18.20;;;13.75;;
45408;SDS011;31162;51.076;3.784;2023-04-06T00:28:26;20.48;;;14.25;;
45408;SDS011;31162;51.076;3.784;2023-04-06T00:30:53;18.52;;;14.13;;
45408;SDS011;31162;51.076;3.784;2023-04-06T00:33:20;20.13;;;14.45;;
45408;SDS011;31162;51.076;3.784;2023-04-06T00:35:46;16.95;;;14.18;;
45408;SDS011;31162;51.076;3.784;2023-04-06T00:38:12;19.15;;;14.90;;
45408;SDS011;31162;51.076;3.784;2023-04-06T00:40:38;18.52;;;14.73;;
45408;SDS011;31162;51.076;3.784;2023-04-06T00:43:05;18.98;;;14.63;;
45408;SDS011;31162;51.076;3.784;2023-04-06T00:45:31;20.13;;;15.15;;
45408;SDS011;31162;51.076;3.784;2023-04-06T00:47:57;19.58;;;15.57;;
45408;SDS011;31162;51.076;3.784;2023-04-06T00:50:23;18.73;;;14.85;;
45408;SDS011;31162;51.076;3.784;2023-04-06T00:52:49;19.90;;;15.05;;
45408;SDS011;31162;51.076;3.784;2023-04-06T00:55:15;18.35;;;14.55;;
45408;SDS011;31162;51.076;3.784;2023-04-06T00:57:42;17.80;;;15.40;;
45408;SDS011;31162;51.076;3.784;2023-04-06T01:00:08;18.35;;;15.50;;
45408;SDS011;31162;51.076;3.784;2023-04-06T01:02:34;22.40;;;15.48;;
45408;SDS011;31162;51.076;3.784;2023-04-06T01:05:01;20.90;;;15.48;;
45408;SDS011;31162;51.076;3.784;2023-04-06T01:07:27;19.90;;;15.13;;
45408;SDS011;31162;51.076;3.784;2023-04-06T01:09:53;19.60;;;15.75;;
45408;SDS011;31162;51.076;3.784;2023-04-06T01:12:19;20.45;;;15.63;;
45408;SDS011;31162;51.076;3.784;2023-04-06T01:14:45;17.75;;;14.77;;
45408;SDS011;31162;51.076;3.784;2023-04-06T01:17:11;18.02;;;15.25;;
45408;SDS011;31162;51.076;3.784;2023-04-06T01:19:36;21.63;;;15.52;;
45408;SDS011;31162;51.076;3.784;2023-04-06T01:22:02;21.55;;;16.05;;
45408;SDS011;31162;51.076;3.784;2023-04-06T01:24:28;19.08;;;15.32;;
45408;SDS011;31162;51.076;3.784;2023-04-06T01:26:54;19.38;;;16.08;;
45408;SDS011;31162;51.076;3.784;2023-04-06T01:29:21;20.52;;;16.10;;
45408;SDS011;31162;51.076;3.784;2023-04-06T01:31:47;20.17;;;16.88;;
45408;SDS011;31162;51.076;3.784;2023-04-06T01:34:12;21.70;;;16.45;;
45408;SDS011;31162;51.076;3.784;2023-04-06T01:36:38;19.38;;;17.23;;
45408;SDS011;31162;51.076;3.784;2023-04-06T01:39:04;20.90;;;15.60;;
45408;SDS011;31162;51.076;3.784;2023-04-06T01:41:30;20.20;;;17.05;;
45408;SDS011;31162;51.076;3.784;2023-04-06T01:43:55;19.48;;;16.20;;
45408;SDS011;31162;51.076;3.784;2023-04-06T01:46:21;20.95;;;16.73;;
45408;SDS011;31162;51.076;3.784;2023-04-06T01:48:47;22.05;;;16.98;;
45408;SDS011;31162;51.076;3.784;2023-04-06T01:51:13;21.17;;;16.95;;
45408;SDS011;31162;51.076;3.784;2023-04-06T01:53:40;19.70;;;17.08;;
45408;SDS011;31162;51.076;3.784;2023-04-06T01:56:05;19.95;;;16.17;;
45408;SDS011;31162;51.076;3.784;2023-04-06T01:58:31;20.50;;;16.02;;
45408;SDS011;31162;51.076;3.784;2023-04-06T02:00:57;23.08;;;16.95;;
45408;SDS011;31162;51.076;3.784;2023-04-06T02:03:22;19.60;;;17.13;;
45408;SDS011;31162;51.076;3.784;2023-04-06T02:05:48;19.80;;;17.17;;
45408;SDS011;31162;51.076;3.784;2023-04-06T02:08:14;19.40;;;17.15;;
45408;SDS011;31162;51.076;3.784;2023-04-06T02:10:40;23.10;;;17.98;;
45408;SDS011;31162;51.076;3.784;2023-04-06T02:13:06;19.17;;;16.83;;
45408;SDS011;31162;51.076;3.784;2023-04-06T02:15:31;20.38;;;16.63;;
45408;SDS011;31162;51.076;3.784;2023-04-06T02:17:57;20.55;;;17.00;;
45408;SDS011;31162;51.076;3.784;2023-04-06T02:20:23;21.27;;;17.50;;
45408;SDS011;31162;51.076;3.784;2023-04-06T02:22:49;21.98;;;16.67;;
45408;SDS011;31162;51.076;3.784;2023-04-06T02:25:15;21.25;;;17.05;;
45408;SDS011;31162;51.076;3.784;2023-04-06T02:27:41;21.73;;;18.35;;
45408;SDS011;31162;51.076;3.784;2023-04-06T02:30:07;22.38;;;17.08;;
45408;SDS011;31162;51.076;3.784;2023-04-06T02:32:33;23.00;;;17.52;;
45408;SDS011;31162;51.076;3.784;2023-04-06T02:34:58;21.98;;;17.55;;
45408;SDS011;31162;51.076;3.784;2023-04-06T02:37:25;23.23;;;18.27;;
45408;SDS011;31162;51.076;3.784;2023-04-06T02:39:50;22.25;;;18.23;;
45408;SDS011;31162;51.076;3.784;2023-04-06T02:42:16;20.83;;;17.27;;
45408;SDS011;31162;51.076;3.784;2023-04-06T02:44:42;22.38;;;18.00;;
45408;SDS011;31162;51.076;3.784;2023-04-06T02:47:08;21.40;;;17.40;;
45408;SDS011;31162;51.076;3.784;2023-04-06T02:49:34;21.88;;;19.40;;
45408;SDS011;31162;51.076;3.784;2023-04-06T02:52:00;22.35;;;18.50;;
45408;SDS011;31162;51.076;3.784;2023-04-06T02:54:27;25.35;;;19.40;;
45408;SDS011;31162;51.076;3.784;2023-04-06T02:56:52;20.40;;;18.20;;
45408;SDS011;31162;51.076;3.784;2023-04-06T02:59:18;23.20;;;19.23;;
45408;SDS011;31162;51.076;3.784;2023-04-06T03:01:44;22.98;;;18.95;;
45408;SDS011;31162;51.076;3.784;2023-04-06T03:04:09;24.27;;;19.55;;
45408;SDS011;31162;51.076;3.784;2023-04-06T03:06:35;25.60;;;20.17;;
45408;SDS011;31162;51.076;3.784;2023-04-06T03:09:01;29.23;;;20.90;;
45408;SDS011;31162;51.076;3.784;2023-04-06T03:11:27;27.45;;;21.20;;
45408;SDS011;31162;51.076;3.784;2023-04-06T03:13:53;28.55;;;22.30;;
45408;SDS011;31162;51.076;3.784;2023-04-06T03:16:18;29.35;;;22.73;;
45408;SDS011;31162;51.076;3.784;2023-04-06T03:18:44;26.65;;;21.73;;
45408;SDS011;31162;51.076;3.784;2023-04-06T03:21:11;35.90;;;25.95;;
45408;SDS011;31162;51.076;3.784;2023-04-06T03:23:38;33.58;;;25.48;;
45408;SDS011;31162;51.076;3.784;2023-04-06T03:26:03;32.53;;;25.83;;
45408;SDS011;31162;51.076;3.784;2023-04-06T03:28:29;33.85;;;27.77;;
45408;SDS011;31162;51.076;3.784;2023-04-06T03:30:55;39.33;;;26.40;;
45408;SDS011;31162;51.076;3.784;2023-04-06T03:33:20;32.47;;;26.30;;
45408;SDS011;31162;51.076;3.784;2023-04-06T03:35:46;36.50;;;27.13;;
45408;SDS011;31162;51.076;3.784;2023-04-06T03:38:12;36.05;;;27.20;;
45408;SDS011;31162;51.076;3.784;2023-04-06T03:40:37;33.95;;;26.42;;
45408;SDS011;31162;51.076;3.784;2023-04-06T03:43:03;34.90;;;27.48;;
45408;SDS011;31162;51.076;3.784;2023-04-06T03:45:29;33.10;;;27.55;;
45408;SDS011;31162;51.076;3.784;2023-04-06T03:47:55;30.80;;;25.25;;
45408;SDS011;31162;51.076;3.784;2023-04-06T03:50:21;32.50;;;25.05;;
45408;SDS011;31162;51.076;3.784;2023-04-06T03:52:47;32.08;;;25.98;;
45408;SDS011;31162;51.076;3.784;2023-04-06T03:55:12;33.78;;;26.98;;
45408;SDS011;31162;51.076;3.784;2023-04-06T03:57:38;32.05;;;25.48;;
45408;SDS011;31162;51.076;3.784;2023-04-06T04:00:04;39.03;;;26.88;;
45408;SDS011;31162;51.076;3.784;2023-04-06T04:02:30;63.33;;;50.70;;
45408;SDS011;31162;51.076;3.784;2023-04-06T04:04:56;39.78;;;31.95;;
45408;SDS011;31162;51.076;3.784;2023-04-06T04:07:22;34.20;;;26.25;;
45408;SDS011;31162;51.076;3.784;2023-04-06T04:09:48;34.00;;;26.02;;
45408;SDS011;31162;51.076;3.784;2023-04-06T04:12:13;33.85;;;26.02;;
45408;SDS011;31162;51.076;3.784;2023-04-06T04:14:41;32.63;;;27.02;;
45408;SDS011;31162;51.076;3.784;2023-04-06T04:17:07;34.20;;;27.00;;
45408;SDS011;31162;51.076;3.784;2023-04-06T04:19:33;34.88;;;26.63;;
45408;SDS011;31162;51.076;3.784;2023-04-06T04:21:59;30.30;;;25.88;;
45408;SDS011;31162;51.076;3.784;2023-04-06T04:24:24;34.13;;;27.55;;
45408;SDS011;31162;51.076;3.784;2023-04-06T04:26:51;34.30;;;27.15;;
45408;SDS011;31162;51.076;3.784;2023-04-06T04:29:16;34.90;;;27.42;;
45408;SDS011;31162;51.076;3.784;2023-04-06T04:31:44;34.42;;;27.42;;
45408;SDS011;31162;51.076;3.784;2023-04-06T04:34:10;32.25;;;26.85;;
45408;SDS011;31162;51.076;3.784;2023-04-06T04:36:36;30.55;;;25.15;;
45408;SDS011;31162;51.076;3.784;2023-04-06T04:39:01;32.60;;;26.67;;
45408;SDS011;31162;51.076;3.784;2023-04-06T04:41:27;40.03;;;28.98;;
45408;SDS011;31162;51.076;3.784;2023-04-06T04:43:53;34.35;;;29.45;;
45408;SDS011;31162;51.076;3.784;2023-04-06T04:46:18;32.03;;;26.13;;
45408;SDS011;31162;51.076;3.784;2023-04-06T04:48:44;32.63;;;26.90;;
45408;SDS011;31162;51.076;3.784;2023-04-06T04:51:10;30.70;;;25.02;;
45408;SDS011;31162;51.076;3.784;2023-04-06T04:53:35;31.50;;;25.42;;
45408;SDS011;31162;51.076;3.784;2023-04-06T04:56:01;33.92;;;25.80;;
45408;SDS011;31162;51.076;3.784;2023-04-06T04:58:27;30.63;;;25.45;;
45408;SDS011;31162;51.076;3.784;2023-04-06T05:00:52;29.30;;;25.77;;
45408;SDS011;31162;51.076;3.784;2023-04-06T05:03:20;34.13;;;25.70;;
45408;SDS011;31162;51.076;3.784;2023-04-06T05:05:47;33.55;;;25.83;;
45408;SDS011;31162;51.076;3.784;2023-04-06T05:08:13;32.22;;;25.33;;
45408;SDS011;31162;51.076;3.784;2023-04-06T05:10:39;32.53;;;25.33;;
45408;SDS011;31162;51.076;3.784;2023-04-06T05:13:05;32.22;;;25.80;;
45408;SDS011;31162;51.076;3.784;2023-04-06T05:15:31;32.10;;;25.63;;
45408;SDS011;31162;51.076;3.784;2023-04-06T05:17:57;34.47;;;26.60;;
45408;SDS011;31162;51.076;3.784;2023-04-06T05:20:22;32.25;;;26.20;;
45408;SDS011;31162;51.076;3.784;2023-04-06T05:22:48;33.95;;;26.83;;
45408;SDS011;31162;51.076;3.784;2023-04-06T05:25:14;34.15;;;26.95;;
45408;SDS011;31162;51.076;3.784;2023-04-06T05:27:40;31.65;;;26.08;;
45408;SDS011;31162;51.076;3.784;2023-04-06T05:30:06;34.80;;;25.63;;
45408;SDS011;31162;51.076;3.784;2023-04-06T05:32:32;32.20;;;25.42;;
45408;SDS011;31162;51.076;3.784;2023-04-06T05:34:59;29.95;;;25.30;;
45408;SDS011;31162;51.076;3.784;2023-04-06T05:37:25;31.52;;;25.27;;
45408;SDS011;31162;51.076;3.784;2023-04-06T05:39:50;30.25;;;25.52;;
45408;SDS011;31162;51.076;3.784;2023-04-06T05:42:16;34.15;;;26.42;;
45408;SDS011;31162;51.076;3.784;2023-04-06T05:44:42;30.52;;;25.65;;
45408;SDS011;31162;51.076;3.784;2023-04-06T05:47:07;31.63;;;27.50;;
45408;SDS011;31162;51.076;3.784;2023-04-06T05:49:33;31.08;;;25.75;;
45408;SDS011;31162;51.076;3.784;2023-04-06T05:51:59;33.05;;;26.65;;
45408;SDS011;31162;51.076;3.784;2023-04-06T05:54:25;33.60;;;26.65;;
45408;SDS011;31162;51.076;3.784;2023-04-06T05:56:51;31.85;;;26.17;;
45408;SDS011;31162;51.076;3.784;2023-04-06T05:59:17;33.72;;;26.30;;
45408;SDS011;31162;51.076;3.784;2023-04-06T06:01:42;31.77;;;26.15;;
45408;SDS011;31162;51.076;3.784;2023-04-06T06:04:08;33.25;;;26.08;;
45408;SDS011;31162;51.076;3.784;2023-04-06T06:06:34;31.30;;;25.17;;
45408;SDS011;31162;51.076;3.784;2023-04-06T06:09:00;32.88;;;26.77;;
45408;SDS011;31162;51.076;3.784;2023-04-06T06:11:27;31.50;;;25.80;;
45408;SDS011;31162;51.076;3.784;2023-04-06T06:13:53;36.20;;;25.60;;
45408;SDS011;31162;51.076;3.784;2023-04-06T06:16:19;32.25;;;26.38;;
45408;SDS011;31162;51.076;3.784;2023-04-06T06:18:45;33.08;;;24.88;;
45408;SDS011;31162;51.076;3.784;2023-04-06T06:21:10;32.50;;;25.67;;
45408;SDS011;31162;51.076;3.784;2023-04-06T06:23:37;31.75;;;24.70;;
45408;SDS011;31162;51.076;3.784;2023-04-06T06:26:03;30.08;;;23.27;;
45408;SDS011;31162;51.076;3.784;2023-04-06T06:28:29;29.75;;;22.52;;
45408;SDS011;31162;51.076;3.784;2023-04-06T06:30:55;30.08;;;23.00;;
45408;SDS011;31162;51.076;3.784;2023-04-06T06:33:21;30.30;;;23.85;;
45408;SDS011;31162;51.076;3.784;2023-04-06T06:35:46;26.08;;;20.65;;
45408;SDS011;31162;51.076;3.784;2023-04-06T06:38:12;27.63;;;22.50;;
45408;SDS011;31162;51.076;3.784;2023-04-06T06:40:38;26.85;;;21.73;;
45408;SDS011;31162;51.076;3.784;2023-04-06T06:43:04;26.13;;;20.33;;
45408;SDS011;31162;51.076;3.784;2023-04-06T06:45:30;27.02;;;21.00;;
45408;SDS011;31162;51.076;3.784;2023-04-06T06:47:56;27.20;;;20.85;;
45408;SDS011;31162;51.076;3.784;2023-04-06T06:50:22;25.80;;;19.73;;
45408;SDS011;31162;51.076;3.784;2023-04-06T06:52:47;26.70;;;19.33;;
45408;SDS011;31162;51.076;3.784;2023-04-06T06:55:13;26.08;;;19.92;;
45408;SDS011;31162;51.076;3.784;2023-04-06T06:57:39;24.23;;;18.90;;
45408;SDS011;31162;51.076;3.784;2023-04-06T07:00:07;22.50;;;17.88;;
45408;SDS011;31162;51.076;3.784;2023-04-06T07:02:34;19.90;;;16.80;;
45408;SDS011;31162;51.076;3.784;2023-04-06T07:05:00;19.65;;;15.60;;
45408;SDS011;31162;51.076;3.784;2023-04-06T07:07:26;18.75;;;14.40;;
45408;SDS011;31162;51.076;3.784;2023-04-06T07:09:52;19.88;;;14.90;;
45408;SDS011;31162;51.076;3.784;2023-04-06T07:12:18;18.98;;;14.32;;
45408;SDS011;31162;51.076;3.784;2023-04-06T07:14:43;17.00;;;13.40;;
45408;SDS011;31162;51.076;3.784;2023-04-06T07:17:09;17.90;;;13.63;;
45408;SDS011;31162;51.076;3.784;2023-04-06T07:19:36;16.73;;;13.38;;
45408;SDS011;31162;51.076;3.784;2023-04-06T07:22:03;16.27;;;12.40;;
45408;SDS011;31162;51.076;3.784;2023-04-06T07:24:29;15.98;;;11.73;;
45408;SDS011;31162;51.076;3.784;2023-04-06T07:26:55;14.52;;;11.45;;
45408;SDS011;31162;51.076;3.784;2023-04-06T07:29:21;11.05;;;9.40;;
45408;SDS011;31162;51.076;3.784;2023-04-06T07:31:48;15.88;;;11.30;;
45408;SDS011;31162;51.076;3.784;2023-04-06T07:34:14;12.43;;;10.73;;
45408;SDS011;31162;51.076;3.784;2023-04-06T07:36:40;12.15;;;10.85;;
45408;SDS011;31162;51.076;3.784;2023-04-06T07:39:06;11.82;;;9.38;;
45408;SDS011;31162;51.076;3.784;2023-04-06T07:41:32;12.05;;;9.85;;
45408;SDS011;31162;51.076;3.784;2023-04-06T07:43:57;12.63;;;10.25;;
45408;SDS011;31162;51.076;3.784;2023-04-06T07:46:23;11.75;;;9.88;;
45408;SDS011;31162;51.076;3.784;2023-04-06T07:48:49;14.75;;;10.98;;
45408;SDS011;31162;51.076;3.784;2023-04-06T07:51:16;12.90;;;9.93;;
45408;SDS011;31162;51.076;3.784;2023-04-06T07:53:43;12.63;;;11.13;;
45408;SDS011;31162;51.076;3.784;2023-04-06T07:56:09;15.15;;;11.80;;
45408;SDS011;31162;51.076;3.784;2023-04-06T07:58:35;13.82;;;11.65;;
45408;SDS011;31162;51.076;3.784;2023-04-06T08:01:01;14.40;;;11.90;;
45408;SDS011;31162;51.076;3.784;2023-04-06T08:03:27;16.20;;;12.15;;
45408;SDS011;31162;51.076;3.784;2023-04-06T08:05:53;16.27;;;11.95;;
45408;SDS011;31162;51.076;3.784;2023-04-06T08:08:18;14.75;;;11.35;;
45408;SDS011;31162;51.076;3.784;2023-04-06T08:10:46;15.05;;;12.63;;
45408;SDS011;31162;51.076;3.784;2023-04-06T08:13:12;15.60;;;13.05;;
45408;SDS011;31162;51.076;3.784;2023-04-06T08:15:38;15.18;;;12.13;;
45408;SDS011;31162;51.076;3.784;2023-04-06T08:18:03;18.17;;;13.02;;
45408;SDS011;31162;51.076;3.784;2023-04-06T08:20:30;16.05;;;13.10;;
45408;SDS011;31162;51.076;3.784;2023-04-06T08:22:56;16.67;;;14.00;;
45408;SDS011;31162;51.076;3.784;2023-04-06T08:25:21;17.92;;;13.98;;
45408;SDS011;31162;51.076;3.784;2023-04-06T08:27:47;18.00;;;13.27;;
45408;SDS011;31162;51.076;3.784;2023-04-06T08:30:13;16.13;;;13.73;;
45408;SDS011;31162;51.076;3.784;2023-04-06T08:32:40;17.98;;;13.57;;
45408;SDS011;31162;51.076;3.784;2023-04-06T08:35:07;16.90;;;13.82;;
45408;SDS011;31162;51.076;3.784;2023-04-06T08:37:33;18.73;;;13.77;;
45408;SDS011;31162;51.076;3.784;2023-04-06T08:39:59;18.27;;;14.70;;
45408;SDS011;31162;51.076;3.784;2023-04-06T08:42:25;18.15;;;14.02;;
45408;SDS011;31162;51.076;3.784;2023-04-06T08:44:51;16.77;;;14.15;;
45408;SDS011;31162;51.076;3.784;2023-04-06T08:47:17;22.15;;;15.30;;
45408;SDS011;31162;51.076;3.784;2023-04-06T08:49:43;19.40;;;14.73;;
45408;SDS011;31162;51.076;3.784;2023-04-06T08:52:10;17.88;;;14.88;;
45408;SDS011;31162;51.076;3.784;2023-04-06T08:54:37;18.60;;;15.07;;
45408;SDS011;31162;51.076;3.784;2023-04-06T08:57:04;17.50;;;14.23;;
45408;SDS011;31162;51.076;3.784;2023-04-06T08:59:31;17.98;;;14.95;;
45408;SDS011;31162;51.076;3.784;2023-04-06T09:01:57;18.40;;;14.63;;
45408;SDS011;31162;51.076;3.784;2023-04-06T09:04:26;18.48;;;14.88;;
45408;SDS011;31162;51.076;3.784;2023-04-06T09:06:52;20.63;;;15.70;;
45408;SDS011;31162;51.076;3.784;2023-04-06T09:09:18;17.55;;;14.82;;
45408;SDS011;31162;51.076;3.784;2023-04-06T09:11:48;21.58;;;15.88;;
45408;SDS011;31162;51.076;3.784;2023-04-06T09:14:15;19.60;;;16.20;;
45408;SDS011;31162;51.076;3.784;2023-04-06T09:16:42;19.45;;;15.77;;
45408;SDS011;31162;51.076;3.784;2023-04-06T09:19:10;20.40;;;16.15;;
45408;SDS011;31162;51.076;3.784;2023-04-06T09:21:37;19.65;;;15.73;;
45408;SDS011;31162;51.076;3.784;2023-04-06T09:24:06;19.35;;;15.68;;
45408;SDS011;31162;51.076;3.784;2023-04-06T09:26:43;19.25;;;15.20;;
45408;SDS011;31162;51.076;3.784;2023-04-06T09:29:21;18.25;;;14.15;;
45408;SDS011;31162;51.076;3.784;2023-04-06T09:31:48;18.02;;;15.13;;
45408;SDS011;31162;51.076;3.784;2023-04-06T09:34:21;17.60;;;14.52;;
45408;SDS011;31162;51.076;3.784;2023-04-06T09:36:48;16.38;;;14.57;;
45408;SDS011;31162;51.076;3.784;2023-04-06T09:39:14;20.05;;;14.52;;
45408;SDS011;31162;51.076;3.784;2023-04-06T09:41:39;18.13;;;14.95;;
45408;SDS011;31162;51.076;3.784;2023-04-06T09:44:09;18.35;;;15.38;;
45408;SDS011;31162;51.076;3.784;2023-04-06T09:46:40;19.65;;;14.45;;
45408;SDS011;31162;51.076;3.784;2023-04-06T09:49:07;16.83;;;13.93;;
45408;SDS011;31162;51.076;3.784;2023-04-06T09:51:41;17.50;;;14.65;;
45408;SDS011;31162;51.076;3.784;2023-04-06T09:54:15;17.05;;;13.55;;
45408;SDS011;31162;51.076;3.784;2023-04-06T10:02:23;16.30;;;14.15;;
45408;SDS011;31162;51.076;3.784;2023-04-06T10:08:11;18.42;;;14.32;;
45408;SDS011;31162;51.076;3.784;2023-04-06T10:10:38;19.88;;;14.60;;
45408;SDS011;31162;51.076;3.784;2023-04-06T10:13:04;20.40;;;15.35;;
45408;SDS011;31162;51.076;3.784;2023-04-06T10:15:31;18.60;;;15.90;;
45408;SDS011;31162;51.076;3.784;2023-04-06T10:18:00;17.08;;;14.68;;
45408;SDS011;31162;51.076;3.784;2023-04-06T10:23:06;18.35;;;15.60;;
45408;SDS011;31162;51.076;3.784;2023-04-06T10:25:40;19.67;;;16.80;;
45408;SDS011;31162;51.076;3.784;2023-04-06T10:28:18;17.05;;;15.05;;
45408;SDS011;31162;51.076;3.784;2023-04-06T10:30:44;17.38;;;15.52;;
45408;SDS011;31162;51.076;3.784;2023-04-06T10:33:18;18.48;;;16.52;;
45408;SDS011;31162;51.076;3.784;2023-04-06T10:35:45;19.38;;;15.85;;
45408;SDS011;31162;51.076;3.784;2023-04-06T10:38:11;17.63;;;15.75;;
45408;SDS011;31162;51.076;3.784;2023-04-06T10:40:39;18.42;;;16.42;;
45408;SDS011;31162;51.076;3.784;2023-04-06T10:45:38;18.65;;;15.93;;
45408;SDS011;31162;51.076;3.784;2023-04-06T10:48:17;18.75;;;15.98;;
45408;SDS011;31162;51.076;3.784;2023-04-06T10:50:44;17.67;;;15.88;;
45408;SDS011;31162;51.076;3.784;2023-04-06T10:53:19;18.33;;;15.70;;
45408;SDS011;31162;51.076;3.784;2023-04-06T10:55:53;17.77;;;15.45;;
45408;SDS011;31162;51.076;3.784;2023-04-06T10:58:24;17.98;;;15.27;;
45408;SDS011;31162;51.076;3.784;2023-04-06T11:00:50;19.08;;;15.73;;
45408;SDS011;31162;51.076;3.784;2023-04-06T11:03:16;21.90;;;15.90;;
45408;SDS011;31162;51.076;3.784;2023-04-06T11:05:43;17.52;;;15.48;;
45408;SDS011;31162;51.076;3.784;2023-04-06T11:08:10;18.75;;;15.75;;
45408;SDS011;31162;51.076;3.784;2023-04-06T11:10:46;17.15;;;14.77;;
45408;SDS011;31162;51.076;3.784;2023-04-06T11:13:14;17.02;;;14.40;;
45408;SDS011;31162;51.076;3.784;2023-04-06T11:15:39;15.70;;;14.00;;
45408;SDS011;31162;51.076;3.784;2023-04-06T11:18:05;17.60;;;14.10;;
45408;SDS011;31162;51.076;3.784;2023-04-06T11:20:31;15.35;;;12.82;;
45408;SDS011;31162;51.076;3.784;2023-04-06T11:22:57;14.98;;;13.30;;
45408;SDS011;31162;51.076;3.784;2023-04-06T11:25:24;15.40;;;13.77;;
45408;SDS011;31162;51.076;3.784;2023-04-06T11:27:52;14.88;;;13.10;;
45408;SDS011;31162;51.076;3.784;2023-04-06T11:30:18;14.68;;;13.07;;
45408;SDS011;31162;51.076;3.784;2023-04-06T11:32:45;14.48;;;12.68;;
45408;SDS011;31162;51.076;3.784;2023-04-06T11:35:20;12.98;;;11.57;;
45408;SDS011;31162;51.076;3.784;2023-04-06T11:37:50;13.40;;;12.07;;
45408;SDS011;31162;51.076;3.784;2023-04-06T11:40:22;15.85;;;13.57;;
45408;SDS011;31162;51.076;3.784;2023-04-06T11:42:53;14.18;;;12.77;;
45408;SDS011;31162;51.076;3.784;2023-04-06T11:45:20;13.15;;;11.80;;
45408;SDS011;31162;51.076;3.784;2023-04-06T11:47:55;13.48;;;12.07;;
45408;SDS011;31162;51.076;3.784;2023-04-06T11:50:25;12.80;;;11.40;;
45408;SDS011;31162;51.076;3.784;2023-04-06T11:55:26;12.55;;;11.07;;
45408;SDS011;31162;51.076;3.784;2023-04-06T11:57:51;12.32;;;11.10;;
45408;SDS011;31162;51.076;3.784;2023-04-06T12:00:17;12.77;;;11.48;;
45408;SDS011;31162;51.076;3.784;2023-04-06T12:02:47;12.98;;;11.68;;
45408;SDS011;31162;51.076;3.784;2023-04-06T12:05:13;13.23;;;11.38;;
45408;SDS011;31162;51.076;3.784;2023-04-06T12:07:39;13.18;;;11.88;;
45408;SDS011;31162;51.076;3.784;2023-04-06T12:10:05;14.02;;;12.52;;
45408;SDS011;31162;51.076;3.784;2023-04-06T12:12:31;14.43;;;12.93;;
45408;SDS011;31162;51.076;3.784;2023-04-06T12:14:57;13.77;;;12.32;;
45408;SDS011;31162;51.076;3.784;2023-04-06T12:17:22;13.43;;;12.10;;
45408;SDS011;31162;51.076;3.784;2023-04-06T12:19:48;14.70;;;12.77;;
45408;SDS011;31162;51.076;3.784;2023-04-06T12:22:14;14.73;;;13.18;;
45408;SDS011;31162;51.076;3.784;2023-04-06T12:24:40;14.27;;;12.88;;
45408;SDS011;31162;51.076;3.784;2023-04-06T12:27:06;15.20;;;13.68;;
45408;SDS011;31162;51.076;3.784;2023-04-06T12:29:31;15.30;;;13.68;;
45408;SDS011;31162;51.076;3.784;2023-04-06T12:31:57;15.50;;;14.00;;
45408;SDS011;31162;51.076;3.784;2023-04-06T12:34:23;15.82;;;14.25;;
45408;SDS011;31162;51.076;3.784;2023-04-06T12:36:49;16.77;;;15.07;;
45408;SDS011;31162;51.076;3.784;2023-04-06T12:39:15;16.95;;;15.15;;
45408;SDS011;31162;51.076;3.784;2023-04-06T12:41:43;17.38;;;15.55;;
45408;SDS011;31162;51.076;3.784;2023-04-06T12:44:09;18.17;;;16.27;;
45408;SDS011;31162;51.076;3.784;2023-04-06T12:46:36;16.95;;;15.20;;
45408;SDS011;31162;51.076;3.784;2023-04-06T12:49:01;17.13;;;15.32;;
45408;SDS011;31162;51.076;3.784;2023-04-06T12:51:28;16.65;;;14.95;;
45408;SDS011;31162;51.076;3.784;2023-04-06T12:53:54;18.52;;;16.55;;
45408;SDS011;31162;51.076;3.784;2023-04-06T12:56:20;17.10;;;15.38;;
45408;SDS011;31162;51.076;3.784;2023-04-06T12:58:47;17.73;;;15.77;;
45408;SDS011;31162;51.076;3.784;2023-04-06T13:01:13;17.58;;;15.88;;
45408;SDS011;31162;51.076;3.784;2023-04-06T13:03:39;18.70;;;16.80;;
45408;SDS011;31162;51.076;3.784;2023-04-06T13:06:06;17.90;;;16.13;;
45408;SDS011;31162;51.076;3.784;2023-04-06T13:08:33;18.30;;;16.45;;
45408;SDS011;31162;51.076;3.784;2023-04-06T13:10:59;18.65;;;16.70;;
45408;SDS011;31162;51.076;3.784;2023-04-06T13:13:25;18.70;;;16.90;;
45408;SDS011;31162;51.076;3.784;2023-04-06T13:15:52;19.40;;;17.48;;
45408;SDS011;31162;51.076;3.784;2023-04-06T13:18:20;18.73;;;16.90;;
45408;SDS011;31162;51.076;3.784;2023-04-06T13:20:46;18.30;;;16.35;;
45408;SDS011;31162;51.076;3.784;2023-04-06T13:23:12;17.63;;;15.85;;
45408;SDS011;31162;51.076;3.784;2023-04-06T13:25:38;18.42;;;16.65;;
45408;SDS011;31162;51.076;3.784;2023-04-06T13:28:04;18.50;;;16.60;;
45408;SDS011;31162;51.076;3.784;2023-04-06T13:30:30;18.33;;;16.42;;
45408;SDS011;31162;51.076;3.784;2023-04-06T13:32:55;18.02;;;16.23;;
45408;SDS011;31162;51.076;3.784;2023-04-06T13:35:21;18.48;;;16.58;;
45408;SDS011;31162;51.076;3.784;2023-04-06T13:37:47;17.77;;;15.98;;
45408;SDS011;31162;51.076;3.784;2023-04-06T13:40:13;17.70;;;15.98;;
45408;SDS011;31162;51.076;3.784;2023-04-06T13:42:39;17.95;;;16.15;;
45408;SDS011;31162;51.076;3.784;2023-04-06T13:45:06;18.55;;;16.75;;
45408;SDS011;31162;51.076;3.784;2023-04-06T13:47:32;18.90;;;17.00;;
45408;SDS011;31162;51.076;3.784;2023-04-06T13:49:58;18.55;;;16.75;;
45408;SDS011;31162;51.076;3.784;2023-04-06T13:52:24;18.95;;;17.13;;
45408;SDS011;31162;51.076;3.784;2023-04-06T13:54:50;18.85;;;17.02;;
45408;SDS011;31162;51.076;3.784;2023-04-06T13:57:15;19.48;;;17.23;;
45408;SDS011;31162;51.076;3.784;2023-04-06T13:59:41;20.27;;;18.38;;
45408;SDS011;31162;51.076;3.784;2023-04-06T14:02:08;21.33;;;19.27;;
45408;SDS011;31162;51.076;3.784;2023-04-06T14:04:34;22.58;;;20.58;;
45408;SDS011;31162;51.076;3.784;2023-04-06T14:07:01;23.35;;;21.05;;
45408;SDS011;31162;51.076;3.784;2023-04-06T14:09:28;21.88;;;19.58;;
45408;SDS011;31162;51.076;3.784;2023-04-06T14:11:54;23.48;;;21.08;;
45408;SDS011;31162;51.076;3.784;2023-04-06T14:14:21;23.25;;;20.65;;
45408;SDS011;31162;51.076;3.784;2023-04-06T14:16:47;24.45;;;21.85;;
45408;SDS011;31162;51.076;3.784;2023-04-06T14:19:14;24.90;;;22.20;;
45408;SDS011;31162;51.076;3.784;2023-04-06T14:21:41;25.35;;;22.88;;
45408;SDS011;31162;51.076;3.784;2023-04-06T14:24:08;24.65;;;21.70;;
45408;SDS011;31162;51.076;3.784;2023-04-06T14:26:35;27.17;;;22.95;;
45408;SDS011;31162;51.076;3.784;2023-04-06T14:29:01;25.20;;;22.52;;
45408;SDS011;31162;51.076;3.784;2023-04-06T14:31:30;26.70;;;22.33;;
45408;SDS011;31162;51.076;3.784;2023-04-06T14:33:57;26.98;;;24.10;;